CheckWX is a tool to help pilots better visualize weather data.  It is not intended as a substitute for an official pre-flight weather briefing.

12:21:22 UTC

KBFI METAR
Boeing Field / King County International Airport
Seattle, Washington, USA
Current

28 mins ago

KBFI 181153Z 15005KT 8SM SCT009 OVC033 02/01 A3037 RMK AO2 SLP283 T00220006 10022 20006 50004
Observed
Feb-18 @ 11:53 UTC
Wind
  • 150° at 5 KTS
Visibility
8 SM
Flight Rules
VFR
Cloud Levels
  • Scattered at 900' AGL
  • Overcast at 3,300' AGL
Temperature
C / 36°F
Dewpoint
C / 34°F
Humidity
93%
Altimeter
30.37" Hg
Pressure
1028.3 hPa
Previous

1 hour ago

KBFI 181112Z 17003KT 8SM SCT009 OVC035 02/01 A3037 RMK AO2 T00170006
Observed
Feb-18 @ 11:12 UTC
Wind
  • 170° at 3 KTS
Visibility
8 SM
Flight Rules
VFR
Cloud Levels
  • Scattered at 900' AGL
  • Overcast at 3,500' AGL
Temperature
C / 36°F
Dewpoint
C / 34°F
Humidity
93%
Altimeter
30.37" Hg
Pressure
1028.42 hPa
Previous

1 hour ago

KBFI 181053Z 14006KT 7SM BKN033 OVC039 02/01 A3037 RMK AO2 SLP284 T00170006
Observed
Feb-18 @ 10:53 UTC
Wind
  • 140° at 6 KTS
Visibility
7 SM
Flight Rules
VFR
Cloud Levels
  • Broken at 3,300' AGL
  • Overcast at 3,900' AGL
Temperature
C / 36°F
Dewpoint
C / 34°F
Humidity
93%
Altimeter
30.37" Hg
Pressure
1028.4 hPa